sensor_id;sensor_type;location;lat;lon;timestamp;pressure;altitude;pressure_sealevel;temperature;humidity
10261;BME280;5175;42.606;23.388;2023-02-28T00:01:25;94165.16;;;6.92;100.00
10261;BME280;5175;42.606;23.388;2023-02-28T00:03:52;94174.88;;;6.87;100.00
10261;BME280;5175;42.606;23.388;2023-02-28T00:06:19;94179.75;;;6.95;100.00
10261;BME280;5175;42.606;23.388;2023-02-28T00:08:46;94177.28;;;6.88;100.00
10261;BME280;5175;42.606;23.388;2023-02-28T00:11:14;94170.31;;;6.82;100.00
10261;BME280;5175;42.606;23.388;2023-02-28T00:13:43;94151.06;;;6.70;100.00
10261;BME280;5175;42.606;23.388;2023-02-28T00:16:13;94179.00;;;6.78;100.00
10261;BME280;5175;42.606;23.388;2023-02-28T00:18:42;94158.84;;;6.77;100.00
10261;BME280;5175;42.606;23.388;2023-02-28T00:21:09;94170.75;;;6.96;100.00
10261;BME280;5175;42.606;23.388;2023-02-28T00:23:36;94124.38;;;6.77;100.00
10261;BME280;5175;42.606;23.388;2023-02-28T00:26:04;94157.06;;;7.04;100.00
10261;BME280;5175;42.606;23.388;2023-02-28T00:28:31;94148.53;;;7.02;100.00
10261;BME280;5175;42.606;23.388;2023-02-28T00:31:00;94177.69;;;7.19;100.00
10261;BME280;5175;42.606;23.388;2023-02-28T00:33:27;94198.63;;;6.99;100.00
10261;BME280;5175;42.606;23.388;2023-02-28T00:36:03;94180.50;;;6.90;100.00
10261;BME280;5175;42.606;23.388;2023-02-28T00:38:31;94156.47;;;6.59;100.00
10261;BME280;5175;42.606;23.388;2023-02-28T00:40:58;94162.16;;;6.89;100.00
10261;BME280;5175;42.606;23.388;2023-02-28T00:43:30;94163.41;;;6.81;100.00
10261;BME280;5175;42.606;23.388;2023-02-28T00:45:57;94159.84;;;6.92;100.00
10261;BME280;5175;42.606;23.388;2023-02-28T00:48:24;94158.97;;;6.87;100.00
10261;BME280;5175;42.606;23.388;2023-02-28T00:50:50;94144.34;;;7.06;100.00
10261;BME280;5175;42.606;23.388;2023-02-28T00:53:19;94159.03;;;7.14;100.00
10261;BME280;5175;42.606;23.388;2023-02-28T00:55:46;94159.59;;;6.94;100.00
10261;BME280;5175;42.606;23.388;2023-02-28T00:58:12;94162.59;;;6.81;100.00
10261;BME280;5175;42.606;23.388;2023-02-28T01:00:39;94166.72;;;6.72;100.00
10261;BME280;5175;42.606;23.388;2023-02-28T01:03:06;94174.56;;;6.83;100.00
10261;BME280;5175;42.606;23.388;2023-02-28T01:05:33;94172.91;;;6.77;100.00
10261;BME280;5175;42.606;23.388;2023-02-28T01:07:59;94167.91;;;6.81;100.00
10261;BME280;5175;42.606;23.388;2023-02-28T01:10:28;94158.50;;;6.90;100.00
10261;BME280;5175;42.606;23.388;2023-02-28T01:12:57;94170.69;;;6.91;100.00
10261;BME280;5175;42.606;23.388;2023-02-28T01:15:24;94166.25;;;6.97;100.00
10261;BME280;5175;42.606;23.388;2023-02-28T01:17:50;94169.16;;;6.95;100.00
10261;BME280;5175;42.606;23.388;2023-02-28T01:20:17;94156.63;;;6.90;100.00
10261;BME280;5175;42.606;23.388;2023-02-28T01:22:44;94156.81;;;6.84;100.00
10261;BME280;5175;42.606;23.388;2023-02-28T01:25:12;94144.03;;;6.81;100.00
10261;BME280;5175;42.606;23.388;2023-02-28T01:27:40;94160.94;;;6.97;100.00
10261;BME280;5175;42.606;23.388;2023-02-28T01:30:08;94150.16;;;6.81;100.00
10261;BME280;5175;42.606;23.388;2023-02-28T01:32:35;94045.78;;;6.06;100.00
10261;BME280;5175;42.606;23.388;2023-02-28T01:35:02;94152.78;;;6.60;100.00
10261;BME280;5175;42.606;23.388;2023-02-28T01:37:29;94147.69;;;6.37;100.00
10261;BME280;5175;42.606;23.388;2023-02-28T01:39:56;94159.19;;;6.64;100.00
10261;BME280;5175;42.606;23.388;2023-02-28T01:42:22;94160.88;;;6.70;100.00
10261;BME280;5175;42.606;23.388;2023-02-28T01:45:02;94156.00;;;6.62;100.00
10261;BME280;5175;42.606;23.388;2023-02-28T01:47:31;94152.41;;;6.73;100.00
10261;BME280;5175;42.606;23.388;2023-02-28T01:49:59;94153.59;;;6.82;100.00
10261;BME280;5175;42.606;23.388;2023-02-28T01:52:27;94162.03;;;6.79;100.00
10261;BME280;5175;42.606;23.388;2023-02-28T01:54:56;94154.66;;;6.43;100.00
10261;BME280;5175;42.606;23.388;2023-02-28T01:57:28;94170.69;;;6.53;100.00
10261;BME280;5175;42.606;23.388;2023-02-28T02:00:00;94160.22;;;6.24;100.00
10261;BME280;5175;42.606;23.388;2023-02-28T02:02:32;94170.66;;;6.14;100.00
10261;BME280;5175;42.606;23.388;2023-02-28T02:05:05;94171.06;;;6.06;100.00
10261;BME280;5175;42.606;23.388;2023-02-28T02:07:35;94167.69;;;5.94;100.00
10261;BME280;5175;42.606;23.388;2023-02-28T02:10:06;94002.88;;;4.87;100.00
10261;BME280;5175;42.606;23.388;2023-02-28T02:12:46;94175.00;;;5.76;100.00
10261;BME280;5175;42.606;23.388;2023-02-28T02:15:22;94171.38;;;5.65;100.00
10261;BME280;5175;42.606;23.388;2023-02-28T02:17:56;94175.72;;;5.71;100.00
10261;BME280;5175;42.606;23.388;2023-02-28T02:20:57;94166.78;;;5.89;100.00
10261;BME280;5175;42.606;23.388;2023-02-28T02:23:51;94160.94;;;5.87;100.00
10261;BME280;5175;42.606;23.388;2023-02-28T02:26:55;94156.09;;;5.67;100.00
10261;BME280;5175;42.606;23.388;2023-02-28T02:29:54;94155.56;;;5.53;100.00
10261;BME280;5175;42.606;23.388;2023-02-28T02:33:02;94162.16;;;5.51;100.00
10261;BME280;5175;42.606;23.388;2023-02-28T02:35:38;94146.91;;;5.41;100.00
10261;BME280;5175;42.606;23.388;2023-02-28T02:38:10;94153.41;;;5.50;100.00
10261;BME280;5175;42.606;23.388;2023-02-28T02:40:44;94150.84;;;4.99;100.00
10261;BME280;5175;42.606;23.388;2023-02-28T02:43:17;94162.84;;;4.78;100.00
10261;BME280;5175;42.606;23.388;2023-02-28T02:45:49;94085.16;;;4.51;100.00
10261;BME280;5175;42.606;23.388;2023-02-28T02:48:20;94156.34;;;5.09;100.00
10261;BME280;5175;42.606;23.388;2023-02-28T02:50:51;94140.72;;;5.07;100.00
10261;BME280;5175;42.606;23.388;2023-02-28T02:53:25;94158.75;;;5.11;100.00
10261;BME280;5175;42.606;23.388;2023-02-28T02:55:54;94169.00;;;5.35;100.00
10261;BME280;5175;42.606;23.388;2023-02-28T02:58:26;94170.84;;;5.35;100.00
10261;BME280;5175;42.606;23.388;2023-02-28T03:00:57;94179.69;;;5.40;100.00
10261;BME280;5175;42.606;23.388;2023-02-28T03:03:27;94186.78;;;5.51;100.00
10261;BME280;5175;42.606;23.388;2023-02-28T03:05:57;94192.06;;;5.51;100.00
10261;BME280;5175;42.606;23.388;2023-02-28T03:08:25;94174.91;;;5.26;100.00
10261;BME280;5175;42.606;23.388;2023-02-28T03:10:56;94161.97;;;5.41;100.00
10261;BME280;5175;42.606;23.388;2023-02-28T03:16:30;94191.19;;;5.62;100.00
10261;BME280;5175;42.606;23.388;2023-02-28T03:19:06;94217.63;;;5.46;100.00
10261;BME280;5175;42.606;23.388;2023-02-28T03:21:43;94203.13;;;5.48;100.00
10261;BME280;5175;42.606;23.388;2023-02-28T03:24:18;94219.38;;;5.68;100.00
10261;BME280;5175;42.606;23.388;2023-02-28T03:26:50;94210.63;;;5.68;100.00
10261;BME280;5175;42.606;23.388;2023-02-28T03:29:23;94221.03;;;5.86;100.00
10261;BME280;5175;42.606;23.388;2023-02-28T03:31:57;94208.84;;;5.85;100.00
10261;BME280;5175;42.606;23.388;2023-02-28T03:34:29;94207.38;;;5.78;100.00
10261;BME280;5175;42.606;23.388;2023-02-28T03:37:02;94205.31;;;5.68;100.00
10261;BME280;5175;42.606;23.388;2023-02-28T03:39:35;94220.53;;;5.44;100.00
10261;BME280;5175;42.606;23.388;2023-02-28T03:42:07;94212.19;;;5.52;100.00
10261;BME280;5175;42.606;23.388;2023-02-28T03:44:39;94219.03;;;5.65;100.00
10261;BME280;5175;42.606;23.388;2023-02-28T03:47:08;94238.25;;;5.72;100.00
10261;BME280;5175;42.606;23.388;2023-02-28T03:49:40;94216.44;;;5.53;100.00
10261;BME280;5175;42.606;23.388;2023-02-28T03:52:11;94224.75;;;5.45;100.00
10261;BME280;5175;42.606;23.388;2023-02-28T03:54:41;94225.50;;;5.57;100.00
10261;BME280;5175;42.606;23.388;2023-02-28T03:57:13;94217.00;;;5.55;100.00
10261;BME280;5175;42.606;23.388;2023-02-28T03:59:47;94219.81;;;5.49;100.00
10261;BME280;5175;42.606;23.388;2023-02-28T04:02:15;94229.44;;;5.55;100.00
10261;BME280;5175;42.606;23.388;2023-02-28T04:04:45;94230.13;;;5.50;100.00
10261;BME280;5175;42.606;23.388;2023-02-28T04:07:15;94228.84;;;5.64;100.00
10261;BME280;5175;42.606;23.388;2023-02-28T04:09:42;94210.34;;;5.53;100.00
10261;BME280;5175;42.606;23.388;2023-02-28T04:12:12;94213.25;;;5.68;100.00
10261;BME280;5175;42.606;23.388;2023-02-28T04:14:39;94229.91;;;5.80;100.00
10261;BME280;5175;42.606;23.388;2023-02-28T04:17:06;94232.47;;;5.75;100.00
10261;BME280;5175;42.606;23.388;2023-02-28T04:19:33;94223.44;;;5.59;100.00
10261;BME280;5175;42.606;23.388;2023-02-28T04:21:59;94223.63;;;5.69;100.00
10261;BME280;5175;42.606;23.388;2023-02-28T04:24:28;94221.13;;;5.63;100.00
10261;BME280;5175;42.606;23.388;2023-02-28T04:26:56;94222.38;;;5.60;100.00
10261;BME280;5175;42.606;23.388;2023-02-28T04:29:25;94220.03;;;5.47;100.00
10261;BME280;5175;42.606;23.388;2023-02-28T04:31:52;94212.94;;;5.64;100.00
10261;BME280;5175;42.606;23.388;2023-02-28T04:34:19;94235.22;;;5.52;100.00
10261;BME280;5175;42.606;23.388;2023-02-28T04:36:47;94222.53;;;5.54;100.00
10261;BME280;5175;42.606;23.388;2023-02-28T04:39:14;94226.97;;;5.65;100.00
10261;BME280;5175;42.606;23.388;2023-02-28T04:41:45;94221.03;;;5.58;100.00
10261;BME280;5175;42.606;23.388;2023-02-28T04:44:12;94238.63;;;5.64;100.00
10261;BME280;5175;42.606;23.388;2023-02-28T04:46:39;94218.16;;;5.59;100.00
10261;BME280;5175;42.606;23.388;2023-02-28T04:49:06;94242.84;;;5.65;100.00
10261;BME280;5175;42.606;23.388;2023-02-28T04:51:33;94239.25;;;5.71;100.00
10261;BME280;5175;42.606;23.388;2023-02-28T04:54:00;94244.44;;;5.78;100.00
10261;BME280;5175;42.606;23.388;2023-02-28T04:56:27;94245.94;;;5.74;100.00
10261;BME280;5175;42.606;23.388;2023-02-28T04:58:55;94243.44;;;5.67;100.00
10261;BME280;5175;42.606;23.388;2023-02-28T05:01:23;94234.34;;;5.63;100.00
10261;BME280;5175;42.606;23.388;2023-02-28T05:03:52;94237.88;;;5.52;100.00
10261;BME280;5175;42.606;23.388;2023-02-28T05:06:22;94246.09;;;5.67;100.00
10261;BME280;5175;42.606;23.388;2023-02-28T05:08:50;94249.66;;;5.61;100.00
10261;BME280;5175;42.606;23.388;2023-02-28T05:11:20;94250.09;;;5.69;100.00
10261;BME280;5175;42.606;23.388;2023-02-28T05:13:47;94245.50;;;5.65;100.00
10261;BME280;5175;42.606;23.388;2023-02-28T05:16:16;94255.91;;;5.55;100.00
10261;BME280;5175;42.606;23.388;2023-02-28T05:18:44;94250.22;;;5.63;100.00
10261;BME280;5175;42.606;23.388;2023-02-28T05:21:24;94254.31;;;5.54;100.00
10261;BME280;5175;42.606;23.388;2023-02-28T05:23:54;94248.19;;;5.53;100.00
10261;BME280;5175;42.606;23.388;2023-02-28T05:26:21;94261.63;;;5.63;100.00
10261;BME280;5175;42.606;23.388;2023-02-28T05:28:48;94263.72;;;5.61;100.00
10261;BME280;5175;42.606;23.388;2023-02-28T05:31:16;94275.47;;;5.82;100.00
10261;BME280;5175;42.606;23.388;2023-02-28T05:33:43;94279.25;;;5.98;100.00
10261;BME280;5175;42.606;23.388;2023-02-28T05:36:10;94274.06;;;5.91;100.00
10261;BME280;5175;42.606;23.388;2023-02-28T05:38:37;94202.19;;;5.26;100.00
10261;BME280;5175;42.606;23.388;2023-02-28T05:41:07;94280.44;;;5.79;100.00
10261;BME280;5175;42.606;23.388;2023-02-28T05:43:35;94289.50;;;5.54;100.00
10261;BME280;5175;42.606;23.388;2023-02-28T05:46:03;94232.00;;;5.10;100.00
10261;BME280;5175;42.606;23.388;2023-02-28T05:48:33;94278.84;;;5.38;100.00
10261;BME280;5175;42.606;23.388;2023-02-28T05:51:00;94297.00;;;5.46;100.00
10261;BME280;5175;42.606;23.388;2023-02-28T05:53:26;94297.78;;;5.58;100.00
10261;BME280;5175;42.606;23.388;2023-02-28T05:55:53;94294.75;;;5.66;100.00
10261;BME280;5175;42.606;23.388;2023-02-28T05:58:20;94301.78;;;5.60;100.00
10261;BME280;5175;42.606;23.388;2023-02-28T06:00:47;94292.03;;;6.01;100.00
10261;BME280;5175;42.606;23.388;2023-02-28T06:03:14;94280.72;;;6.22;100.00
10261;BME280;5175;42.606;23.388;2023-02-28T06:05:43;94288.31;;;6.47;100.00
10261;BME280;5175;42.606;23.388;2023-02-28T06:08:10;94290.00;;;6.69;100.00
10261;BME280;5175;42.606;23.388;2023-02-28T06:10:37;94296.97;;;6.75;100.00
10261;BME280;5175;42.606;23.388;2023-02-28T06:13:04;94289.19;;;6.85;100.00
10261;BME280;5175;42.606;23.388;2023-02-28T06:15:31;94236.25;;;6.41;100.00
10261;BME280;5175;42.606;23.388;2023-02-28T06:18:01;94296.41;;;6.90;100.00
10261;BME280;5175;42.606;23.388;2023-02-28T06:20:28;94292.78;;;6.79;100.00
10261;BME280;5175;42.606;23.388;2023-02-28T06:22:57;94283.53;;;6.82;100.00
10261;BME280;5175;42.606;23.388;2023-02-28T06:25:25;94283.63;;;7.25;100.00
10261;BME280;5175;42.606;23.388;2023-02-28T06:27:53;94285.91;;;8.03;100.00
10261;BME280;5175;42.606;23.388;2023-02-28T06:30:20;94292.03;;;8.57;100.00
10261;BME280;5175;42.606;23.388;2023-02-28T06:32:52;94296.34;;;9.00;100.00
10261;BME280;5175;42.606;23.388;2023-02-28T06:35:20;94298.38;;;9.30;100.00
10261;BME280;5175;42.606;23.388;2023-02-28T06:37:47;94295.72;;;9.82;100.00
10261;BME280;5175;42.606;23.388;2023-02-28T06:40:16;94303.22;;;9.90;100.00
10261;BME280;5175;42.606;23.388;2023-02-28T06:42:43;94313.97;;;9.58;100.00
10261;BME280;5175;42.606;23.388;2023-02-28T06:45:11;94296.75;;;9.19;100.00
10261;BME280;5175;42.606;23.388;2023-02-28T06:47:38;94309.09;;;8.98;100.00
10261;BME280;5175;42.606;23.388;2023-02-28T06:50:07;94310.75;;;8.41;100.00
10261;BME280;5175;42.606;23.388;2023-02-28T06:52:34;94312.03;;;8.65;100.00
10261;BME280;5175;42.606;23.388;2023-02-28T06:55:03;94311.28;;;8.69;100.00
10261;BME280;5175;42.606;23.388;2023-02-28T06:57:35;94316.00;;;8.62;100.00
10261;BME280;5175;42.606;23.388;2023-02-28T07:00:05;94319.03;;;8.76;100.00
10261;BME280;5175;42.606;23.388;2023-02-28T07:02:33;94316.06;;;8.67;100.00
10261;BME280;5175;42.606;23.388;2023-02-28T07:05:00;94323.38;;;8.55;100.00
10261;BME280;5175;42.606;23.388;2023-02-28T07:07:27;94312.03;;;8.65;100.00
10261;BME280;5175;42.606;23.388;2023-02-28T07:09:53;94317.84;;;8.62;100.00
10261;BME280;5175;42.606;23.388;2023-02-28T07:12:20;94317.81;;;8.57;100.00
10261;BME280;5175;42.606;23.388;2023-02-28T07:14:49;94308.94;;;8.46;100.00
10261;BME280;5175;42.606;23.388;2023-02-28T07:17:16;94311.09;;;8.49;100.00
10261;BME280;5175;42.606;23.388;2023-02-28T07:19:43;94307.41;;;8.55;100.00
10261;BME280;5175;42.606;23.388;2023-02-28T07:22:10;94311.69;;;8.56;100.00
10261;BME280;5175;42.606;23.388;2023-02-28T07:24:36;94267.22;;;8.25;100.00
10261;BME280;5175;42.606;23.388;2023-02-28T07:27:05;94314.66;;;8.60;100.00
10261;BME280;5175;42.606;23.388;2023-02-28T07:29:32;94311.22;;;8.64;100.00
10261;BME280;5175;42.606;23.388;2023-02-28T07:32:00;94316.94;;;8.78;100.00
10261;BME280;5175;42.606;23.388;2023-02-28T07:34:27;94311.16;;;8.91;100.00
10261;BME280;5175;42.606;23.388;2023-02-28T07:36:57;94315.28;;;9.04;100.00
10261;BME280;5175;42.606;23.388;2023-02-28T07:39:24;94303.84;;;9.08;100.00
10261;BME280;5175;42.606;23.388;2023-02-28T07:41:51;94310.81;;;9.19;100.00
10261;BME280;5175;42.606;23.388;2023-02-28T07:44:18;94308.53;;;9.33;100.00
10261;BME280;5175;42.606;23.388;2023-02-28T07:46:46;94317.88;;;9.40;100.00
10261;BME280;5175;42.606;23.388;2023-02-28T07:49:14;94309.44;;;9.54;100.00
10261;BME280;5175;42.606;23.388;2023-02-28T07:51:41;94306.44;;;9.45;100.00
10261;BME280;5175;42.606;23.388;2023-02-28T07:54:10;94309.28;;;9.70;100.00
10261;BME280;5175;42.606;23.388;2023-02-28T07:56:37;94287.16;;;9.70;100.00
10261;BME280;5175;42.606;23.388;2023-02-28T07:59:04;94298.44;;;9.97;100.00
10261;BME280;5175;42.606;23.388;2023-02-28T08:01:31;94307.78;;;10.04;100.00
10261;BME280;5175;42.606;23.388;2023-02-28T08:03:57;94308.69;;;10.30;100.00
10261;BME280;5175;42.606;23.388;2023-02-28T08:06:26;94306.03;;;10.35;100.00
10261;BME280;5175;42.606;23.388;2023-02-28T08:08:53;94306.81;;;10.26;100.00
10261;BME280;5175;42.606;23.388;2023-02-28T08:11:21;94314.31;;;10.29;100.00
10261;BME280;5175;42.606;23.388;2023-02-28T08:13:48;94327.31;;;10.15;100.00
10261;BME280;5175;42.606;23.388;2023-02-28T08:16:15;94314.31;;;10.44;100.00
10261;BME280;5175;42.606;23.388;2023-02-28T08:18:47;94302.81;;;10.28;100.00
10261;BME280;5175;42.606;23.388;2023-02-28T08:21:14;94312.50;;;10.75;100.00
10261;BME280;5175;42.606;23.388;2023-02-28T08:23:42;94320.50;;;10.69;100.00
10261;BME280;5175;42.606;23.388;2023-02-28T08:26:09;94311.44;;;10.71;100.00
10261;BME280;5175;42.606;23.388;2023-02-28T08:28:38;94315.13;;;10.49;100.00
10261;BME280;5175;42.606;23.388;2023-02-28T08:31:07;94322.13;;;10.81;100.00
10261;BME280;5175;42.606;23.388;2023-02-28T08:33:36;94323.97;;;10.60;100.00
10261;BME280;5175;42.606;23.388;2023-02-28T08:36:05;94325.81;;;10.54;100.00
10261;BME280;5175;42.606;23.388;2023-02-28T08:38:32;94322.06;;;10.45;100.00
10261;BME280;5175;42.606;23.388;2023-02-28T08:41:02;94305.47;;;10.18;100.00
10261;BME280;5175;42.606;23.388;2023-02-28T08:43:31;94327.16;;;10.62;100.00
10261;BME280;5175;42.606;23.388;2023-02-28T08:45:57;94336.50;;;10.69;100.00
10261;BME280;5175;42.606;23.388;2023-02-28T08:48:25;94315.41;;;10.58;100.00
10261;BME280;5175;42.606;23.388;2023-02-28T08:50:56;94331.69;;;10.72;100.00
10261;BME280;5175;42.606;23.388;2023-02-28T08:53:23;94333.56;;;10.71;100.00
10261;BME280;5175;42.606;23.388;2023-02-28T08:55:56;94326.88;;;10.48;100.00
10261;BME280;5175;42.606;23.388;2023-02-28T08:58:25;94332.22;;;10.68;100.00
10261;BME280;5175;42.606;23.388;2023-02-28T09:00:52;94330.13;;;10.76;100.00
10261;BME280;5175;42.606;23.388;2023-02-28T09:03:19;94332.22;;;10.68;100.00
10261;BME280;5175;42.606;23.388;2023-02-28T09:05:55;94333.84;;;10.75;100.00
10261;BME280;5175;42.606;23.388;2023-02-28T09:08:25;94343.47;;;10.71;100.00
10261;BME280;5175;42.606;23.388;2023-02-28T09:10:52;94341.88;;;10.90;100.00
10261;BME280;5175;42.606;23.388;2023-02-28T09:13:20;94327.66;;;10.44;100.00
10261;BME280;5175;42.606;23.388;2023-02-28T09:15:48;94330.66;;;10.73;100.00
10261;BME280;5175;42.606;23.388;2023-02-28T09:18:16;94331.69;;;10.56;100.00
10261;BME280;5175;42.606;23.388;2023-02-28T09:20:43;94338.84;;;10.41;100.00
10261;BME280;5175;42.606;23.388;2023-02-28T09:23:11;94333.28;;;10.47;100.00
10261;BME280;5175;42.606;23.388;2023-02-28T09:25:45;94344.19;;;10.46;100.00
10261;BME280;5175;42.606;23.388;2023-02-28T09:28:13;94334.13;;;10.68;100.00
10261;BME280;5175;42.606;23.388;2023-02-28T09:30:41;94271.88;;;10.27;100.00
10261;BME280;5175;42.606;23.388;2023-02-28T09:33:11;94329.81;;;10.57;100.00
10261;BME280;5175;42.606;23.388;2023-02-28T09:35:38;94337.59;;;10.89;100.00
10261;BME280;5175;42.606;23.388;2023-02-28T09:38:05;94329.78;;;10.37;100.00
10261;BME280;5175;42.606;23.388;2023-02-28T09:40:36;94331.47;;;10.73;100.00
10261;BME280;5175;42.606;23.388;2023-02-28T09:43:04;94341.06;;;10.94;100.00
10261;BME280;5175;42.606;23.388;2023-02-28T09:45:33;94326.66;;;10.75;100.00
10261;BME280;5175;42.606;23.388;2023-02-28T09:48:06;94325.31;;;10.62;100.00
10261;BME280;5175;42.606;23.388;2023-02-28T09:50:40;94322.34;;;10.54;100.00
10261;BME280;5175;42.606;23.388;2023-02-28T09:53:16;94322.59;;;10.42;100.00
10261;BME280;5175;42.606;23.388;2023-02-28T09:55:50;94312.16;;;10.31;100.00
10261;BME280;5175;42.606;23.388;2023-02-28T09:58:26;94301.47;;;10.21;100.00
10261;BME280;5175;42.606;23.388;2023-02-28T10:01:00;94321.56;;;10.63;100.00
10261;BME280;5175;42.606;23.388;2023-02-28T10:03:32;94315.41;;;10.58;100.00
10261;BME280;5175;42.606;23.388;2023-02-28T10:06:08;94315.97;;;10.60;100.00
10261;BME280;5175;42.606;23.388;2023-02-28T10:08:40;94318.34;;;10.61;100.00
10261;BME280;5175;42.606;23.388;2023-02-28T10:11:16;94311.97;;;10.57;100.00
10261;BME280;5175;42.606;23.388;2023-02-28T10:13:51;94292.72;;;10.55;100.00
10261;BME280;5175;42.606;23.388;2023-02-28T10:16:25;94314.34;;;10.74;100.00
10261;BME280;5175;42.606;23.388;2023-02-28T10:18:57;94305.53;;;10.58;100.00
10261;BME280;5175;42.606;23.388;2023-02-28T10:21:31;94310.09;;;10.83;100.00
10261;BME280;5175;42.606;23.388;2023-02-28T10:24:04;94303.97;;;10.88;100.00
10261;BME280;5175;42.606;23.388;2023-02-28T10:26:32;94305.81;;;10.67;100.00
10261;BME280;5175;42.606;23.388;2023-02-28T10:28:59;94298.59;;;10.47;100.00
10261;BME280;5175;42.606;23.388;2023-02-28T10:31:28;94295.13;;;10.47;100.00
10261;BME280;5175;42.606;23.388;2023-02-28T10:33:56;94288.75;;;10.63;100.00
10261;BME280;5175;42.606;23.388;2023-02-28T10:36:23;94289.81;;;10.97;100.00
10261;BME280;5175;42.606;23.388;2023-02-28T10:38:51;94286.09;;;10.93;100.00
10261;BME280;5175;42.606;23.388;2023-02-28T10:41:28;94279.41;;;10.86;100.00
10261;BME280;5175;42.606;23.388;2023-02-28T10:44:14;94288.44;;;11.25;100.00
10261;BME280;5175;42.606;23.388;2023-02-28T10:46:42;94275.81;;;11.51;100.00
10261;BME280;5175;42.606;23.388;2023-02-28T10:49:14;94271.22;;;11.66;100.00
10261;BME280;5175;42.606;23.388;2023-02-28T10:51:41;94276.31;;;11.68;100.00
10261;BME280;5175;42.606;23.388;2023-02-28T10:54:18;94266.91;;;11.90;100.00
10261;BME280;5175;42.606;23.388;2023-02-28T10:56:46;94263.91;;;11.97;100.00
10261;BME280;5175;42.606;23.388;2023-02-28T10:59:32;94254.22;;;12.11;100.00
10261;BME280;5175;42.606;23.388;2023-02-28T11:01:59;94259.44;;;12.36;100.00
10261;BME280;5175;42.606;23.388;2023-02-28T11:04:35;94149.66;;;11.59;100.00
10261;BME280;5175;42.606;23.388;2023-02-28T11:07:06;94257.47;;;12.03;100.00
10261;BME280;5175;42.606;23.388;2023-02-28T11:09:37;94250.34;;;12.37;100.00
10261;BME280;5175;42.606;23.388;2023-02-28T11:12:08;94257.00;;;12.74;100.00
10261;BME280;5175;42.606;23.388;2023-02-28T11:14:48;94256.19;;;12.39;100.00
10261;BME280;5175;42.606;23.388;2023-02-28T11:17:20;94250.91;;;12.29;100.00
10261;BME280;5175;42.606;23.388;2023-02-28T11:19:50;94256.44;;;12.43;100.00
10261;BME280;5175;42.606;23.388;2023-02-28T11:22:20;94248.69;;;11.98;100.00
10261;BME280;5175;42.606;23.388;2023-02-28T11:24:51;94233.41;;;12.03;100.00
10261;BME280;5175;42.606;23.388;2023-02-28T11:27:42;94245.56;;;12.29;100.00
10261;BME280;5175;42.606;23.388;2023-02-28T11:30:33;94246.16;;;12.21;100.00
10261;BME280;5175;42.606;23.388;2023-02-28T11:33:22;94237.72;;;11.99;100.00
10261;BME280;5175;42.606;23.388;2023-02-28T11:35:50;94240.25;;;12.24;100.00
10261;BME280;5175;42.606;23.388;2023-02-28T11:38:18;94240.09;;;12.01;100.00
10261;BME280;5175;42.606;23.388;2023-02-28T11:40:53;94235.88;;;11.89;100.00
10261;BME280;5175;42.606;23.388;2023-02-28T11:43:33;94215.88;;;11.77;100.00
10261;BME280;5175;42.606;23.388;2023-02-28T11:46:20;94228.16;;;11.88;100.00
10261;BME280;5175;42.606;23.388;2023-02-28T11:48:57;94217.25;;;11.69;100.00
10261;BME280;5175;42.606;23.388;2023-02-28T11:51:28;94227.69;;;11.71;100.00
10261;BME280;5175;42.606;23.388;2023-02-28T11:54:11;94227.03;;;11.94;100.00
10261;BME280;5175;42.606;23.388;2023-02-28T11:56:48;94231.63;;;12.32;100.00
10261;BME280;5175;42.606;23.388;2023-02-28T12:02:31;94226.75;;;11.96;100.00
10261;BME280;5175;42.606;23.388;2023-02-28T12:05:14;94226.75;;;12.39;100.00
10261;BME280;5175;42.606;23.388;2023-02-28T12:07:58;94235.28;;;12.46;100.00
10261;BME280;5175;42.606;23.388;2023-02-28T12:10:29;94229.28;;;12.21;100.00
10261;BME280;5175;42.606;23.388;2023-02-28T12:13:12;94228.63;;;12.39;100.00
10261;BME280;5175;42.606;23.388;2023-02-28T12:16:04;94228.31;;;12.45;100.00
10261;BME280;5175;42.606;23.388;2023-02-28T12:18:52;94233.38;;;12.52;100.00
10261;BME280;5175;42.606;23.388;2023-02-28T12:21:31;94222.16;;;12.06;100.00
10261;BME280;5175;42.606;23.388;2023-02-28T12:24:22;94226.25;;;12.37;100.00
10261;BME280;5175;42.606;23.388;2023-02-28T12:26:53;94210.34;;;12.51;100.00
10261;BME280;5175;42.606;23.388;2023-02-28T12:29:27;94215.66;;;12.56;100.00
10261;BME280;5175;42.606;23.388;2023-02-28T12:31:58;94182.81;;;12.12;100.00
10261;BME280;5175;42.606;23.388;2023-02-28T12:34:31;94228.16;;;12.32;100.00
10261;BME280;5175;42.606;23.388;2023-02-28T12:37:01;94216.56;;;12.41;100.00
10261;BME280;5175;42.606;23.388;2023-02-28T12:39:33;94228.31;;;12.45;100.00
10261;BME280;5175;42.606;23.388;2023-02-28T12:42:07;94227.59;;;12.69;100.00
10261;BME280;5175;42.606;23.388;2023-02-28T12:44:42;94220.31;;;12.40;100.00
10261;BME280;5175;42.606;23.388;2023-02-28T12:47:15;94219.66;;;12.58;100.00
10261;BME280;5175;42.606;23.388;2023-02-28T12:49:46;94217.84;;;12.49;100.00
10261;BME280;5175;42.606;23.388;2023-02-28T12:52:19;94239.63;;;12.37;100.00
10261;BME280;5175;42.606;23.388;2023-02-28T12:54:53;94220.72;;;12.24;100.00
10261;BME280;5175;42.606;23.388;2023-02-28T12:57:28;94216.25;;;12.14;100.00
10261;BME280;5175;42.606;23.388;2023-02-28T13:00:05;94217.78;;;12.20;100.00
10261;BME280;5175;42.606;23.388;2023-02-28T13:02:56;94217.28;;;12.18;100.00
10261;BME280;5175;42.606;23.388;2023-02-28T13:06:03;94228.13;;;11.93;100.00
10261;BME280;5175;42.606;23.388;2023-02-28T13:11:25;94221.03;;;12.12;100.00
10261;BME280;5175;42.606;23.388;2023-02-28T13:13:59;94202.63;;;12.06;100.00
10261;BME280;5175;42.606;23.388;2023-02-28T13:16:28;94220.91;;;12.37;100.00
10261;BME280;5175;42.606;23.388;2023-02-28T13:19:17;94208.22;;;12.14;100.00
10261;BME280;5175;42.606;23.388;2023-02-28T13:21:47;94211.97;;;12.08;100.00
10261;BME280;5175;42.606;23.388;2023-02-28T13:24:42;94214.19;;;12.40;100.00